Vaaraa aiheuttavia sääilmiöitä ei ole odotettavissa.    Ei varoituksia

Webkamera Lisätietoa Webcam


Yksityisiä sääasemia lähellä:

Sääasema Juupajoki

Sääasema Orivesi

Sääasema Muurame

Sääasema Jyväskylä

Sääasema Vihtavuori


Löydät sääaseman tiedot myös:

Finland Weather Exchange

European Weather Network

Weather Underground

AWEKAS

Windy.com



Säätiedot lähimmiltä METAR asemilta

   
EFHA - Halli (Fin-Afb), Finland
Etäisyys asemalta: Kaakko 25 km
Päivitetty: 09.04.2020 22:50
Selkeää  
Selkeää  
   Tuuli: Luode 2.1 m/s
Tuuli: Luode 2.1 m/s
Lämpötila: 1°C
Tuulen hyytävyys: -1°C
Kastepiste: -5°C
Kosteus: 65%
Ilmanpaine: 1012 hPa
Näkyvyys: Enemmän kuin 10 km
Pilvitiedot: Selkeää
EFHA 091950Z AUTO 31004KT CAVOK 01/M05 Q1012
EFJY - Jyvaskyla (Mil/Civ), Finland
Etäisyys asemalta: Koillinen 75 km
Päivitetty: 09.04.2020 22:50
Selkeää  
Selkeää  
   Tuuli: Länsiluode 3.1 m/s
Tuuli: Länsiluode 3.1 m/s
Lämpötila: 0°C
Tuulen hyytävyys: -3°C
Kastepiste: -5°C
Kosteus: 69%
Ilmanpaine: 1011 hPa
Näkyvyys: Enemmän kuin 10 km
Pilvitiedot: Selkeää
EFJY 091950Z AUTO 30006KT CAVOK M00/M05 Q1011
EFTP - Tampere/Pirkkala, Finland
Etäisyys asemalta: Lounas 81 km
Päivitetty: 09.04.2020 22:50
Selkeää  
Selkeää  
   Tuuli: Vaihtelee 1 m/s
Tuuli: Vaihtelee 1 m/s
Lämpötila: 0°C
Kastepiste: -5°C
Kosteus: 69%
Ilmanpaine: 1013 hPa
Näkyvyys: Enemmän kuin 10 km
Pilvitiedot: Selkeää
EFTP 091950Z AUTO VRB02KT CAVOK M00/M05 Q1013
EFSI - Seinajoki-Ilmajoki, Finland
Etäisyys asemalta: Luode 114 km
Päivitetty: 09.04.2020 22:50
Selkeää  
Selkeää  
   Tuuli: Länsi 1 m/s
Tuuli: Länsi 1 m/s
Lämpötila: -1°C
Kastepiste: -4°C
Kosteus: 80%
Ilmanpaine: 1012 hPa
Näkyvyys: Enemmän kuin 10 km
Pilvitiedot: Selkeää
EFSI 091950Z AUTO 27002KT CAVOK M01/M04 Q1012
EFMI - Mikkeli, Finland
Etäisyys asemalta: Itäkaakko 147 km
Päivitetty: 09.04.2020 22:50
Selkeää  
Selkeää  
   Tuuli: Länsi 2.1 m/s
Tuuli: Länsi 2.1 m/s
Lämpötila: 2°C
Tuulen hyytävyys: 0°C
Kastepiste: -4°C
Kosteus: 65%
Ilmanpaine: 1010 hPa
Näkyvyys: Enemmän kuin 10 km
Pilvitiedot: Selkeää
EFMI 091950Z AUTO 28004KT CAVOK 02/M04 Q1010
EFPO - Pori (Mil/Civ), Finland
Etäisyys asemalta: Länsilounas 154 km
Päivitetty: 09.04.2020 22:50
Selkeää  
Selkeää  
   Tuuli: Länsi 2.6 m/s
Tuuli: Länsi 2.6 m/s
Lämpötila: 1°C
Tuulen hyytävyys: -2°C
Kastepiste: -2°C
Kosteus: 81%
Ilmanpaine: 1014 hPa
Näkyvyys: Enemmän kuin 10 km
Pilvitiedot: Selkeää
EFPO 091950Z AUTO 27005KT CAVOK 01/M02 Q1014
EFUT - Utti (Fin-Afb), Finland
Etäisyys asemalta: Kaakko 180 km
Päivitetty: 09.04.2020 22:50
Selkeää  
Selkeää  
   Tuuli: Luode 3.1 m/s
Tuuli: Luode 3.1 m/s
Lämpötila: 4°C
Tuulen hyytävyys: 1°C
Kastepiste: -4°C
Kosteus: 56%
Ilmanpaine: 1010 hPa
Näkyvyys: Enemmän kuin 10 km
Pilvitiedot: Selkeää
EFUT 091950Z AUTO 32006KT 270V020 CAVOK 04/M04 Q1010
EFVA - Vaasa, Finland
Etäisyys asemalta: Luode 180 km
Päivitetty: 09.04.2020 22:50
Selkeää  
Selkeää  
   Tuuli: Vaihtelee 0.5 m/s
Tuuli: Vaihtelee 0.5 m/s
Lämpötila: 1°C
Kastepiste: -3°C
Kosteus: 75%
Ilmanpaine: 1013 hPa
Näkyvyys: Enemmän kuin 10 km
Pilvitiedot: Selkeää
EFVA 091950Z AUTO VRB01KT CAVOK 01/M03 Q1013
EFHK - Helsinki/Vantaa, Finland
Etäisyys asemalta: Etelä 191 km
Päivitetty: 09.04.2020 22:50
Selkeää  
Selkeää  
   Tuuli: Länsiluode 5.7 m/s
Tuuli: Länsiluode 5.7 m/s
Lämpötila: 4°C
Tuulen hyytävyys: 0°C
Kastepiste: -3°C
Kosteus: 61%
Ilmanpaine: 1012 hPa
Näkyvyys: Enemmän kuin 10 km
Pilvitiedot: Selkeää
EFHK 091950Z 29011KT CAVOK 04/M03 Q1012 NOSIG

Alkuperäinen skripti  Saratoga-weather.org Sovitettu myös templatelle  Weerstation Leuven

Laitteet joita käytämme:

Sääasema
Davis VP2

Sääasemaohjelma
Cumulus

Sääaseman palvelin
HP ProBook 6460b

Palveluntarjoaja
Radicenter

Davis VP2

Cumulus

HP ProBook 6460b

Radicenter




Flag Counter Cumulus Top Weather Sites